sensor_id;sensor_type;location;lat;lon;timestamp;P1;durP1;ratioP1;P2;durP2;ratioP2
75526;SDS011;64107;49.248;7.006;2023-11-19T00:00:10;1.73;;;0.90;;
75526;SDS011;64107;49.248;7.006;2023-11-19T00:02:37;0.77;;;0.30;;
75526;SDS011;64107;49.248;7.006;2023-11-19T00:05:03;0.30;;;0.30;;
75526;SDS011;64107;49.248;7.006;2023-11-19T00:07:29;0.95;;;0.70;;
75526;SDS011;64107;49.248;7.006;2023-11-19T00:09:55;1.85;;;0.60;;
75526;SDS011;64107;49.248;7.006;2023-11-19T00:12:22;0.68;;;0.40;;
75526;SDS011;64107;49.248;7.006;2023-11-19T00:14:49;2.38;;;0.63;;
75526;SDS011;64107;49.248;7.006;2023-11-19T00:17:15;1.15;;;0.70;;
75526;SDS011;64107;49.248;7.006;2023-11-19T00:19:41;1.45;;;0.63;;
75526;SDS011;64107;49.248;7.006;2023-11-19T00:22:07;0.95;;;0.50;;
75526;SDS011;64107;49.248;7.006;2023-11-19T00:24:33;0.60;;;0.45;;
75526;SDS011;64107;49.248;7.006;2023-11-19T00:26:59;0.50;;;0.43;;
75526;SDS011;64107;49.248;7.006;2023-11-19T00:29:25;0.75;;;0.57;;
75526;SDS011;64107;49.248;7.006;2023-11-19T00:31:51;2.05;;;0.57;;
75526;SDS011;64107;49.248;7.006;2023-11-19T00:34:17;1.42;;;1.13;;
75526;SDS011;64107;49.248;7.006;2023-11-19T00:36:47;3.10;;;0.90;;
75526;SDS011;64107;49.248;7.006;2023-11-19T00:39:14;1.83;;;1.10;;
75526;SDS011;64107;49.248;7.006;2023-11-19T00:41:40;0.80;;;0.77;;
75526;SDS011;64107;49.248;7.006;2023-11-19T00:44:06;1.48;;;0.85;;
75526;SDS011;64107;49.248;7.006;2023-11-19T00:46:32;1.33;;;0.95;;
75526;SDS011;64107;49.248;7.006;2023-11-19T00:48:58;0.30;;;0.30;;
75526;SDS011;64107;49.248;7.006;2023-11-19T00:51:25;0.73;;;0.73;;
75526;SDS011;64107;49.248;7.006;2023-11-19T00:53:51;1.60;;;1.27;;
75526;SDS011;64107;49.248;7.006;2023-11-19T00:56:18;0.70;;;0.47;;
75526;SDS011;64107;49.248;7.006;2023-11-19T00:58:44;0.60;;;0.60;;
75526;SDS011;64107;49.248;7.006;2023-11-19T01:01:13;2.10;;;1.20;;
75526;SDS011;64107;49.248;7.006;2023-11-19T01:03:39;1.48;;;0.95;;
75526;SDS011;64107;49.248;7.006;2023-11-19T01:06:05;2.20;;;1.38;;
75526;SDS011;64107;49.248;7.006;2023-11-19T01:08:33;2.47;;;1.25;;
75526;SDS011;64107;49.248;7.006;2023-11-19T01:11:00;2.67;;;1.50;;
75526;SDS011;64107;49.248;7.006;2023-11-19T01:13:27;1.38;;;0.82;;
75526;SDS011;64107;49.248;7.006;2023-11-19T01:15:53;1.27;;;0.85;;
75526;SDS011;64107;49.248;7.006;2023-11-19T01:18:21;4.80;;;1.98;;
75526;SDS011;64107;49.248;7.006;2023-11-19T01:20:47;1.92;;;1.33;;
75526;SDS011;64107;49.248;7.006;2023-11-19T01:23:13;3.03;;;1.60;;
75526;SDS011;64107;49.248;7.006;2023-11-19T01:25:39;4.25;;;2.40;;
75526;SDS011;64107;49.248;7.006;2023-11-19T01:28:05;2.00;;;1.27;;
75526;SDS011;64107;49.248;7.006;2023-11-19T01:30:31;3.25;;;1.30;;
75526;SDS011;64107;49.248;7.006;2023-11-19T01:32:58;2.17;;;1.50;;
75526;SDS011;64107;49.248;7.006;2023-11-19T01:35:24;3.00;;;1.80;;
75526;SDS011;64107;49.248;7.006;2023-11-19T01:37:50;7.20;;;3.72;;
75526;SDS011;64107;49.248;7.006;2023-11-19T01:40:19;3.05;;;1.88;;
75526;SDS011;64107;49.248;7.006;2023-11-19T01:42:45;2.40;;;1.73;;
75526;SDS011;64107;49.248;7.006;2023-11-19T01:45:15;2.80;;;1.42;;
75526;SDS011;64107;49.248;7.006;2023-11-19T01:47:47;3.85;;;1.83;;
75526;SDS011;64107;49.248;7.006;2023-11-19T01:50:13;2.28;;;0.90;;
75526;SDS011;64107;49.248;7.006;2023-11-19T01:52:39;3.75;;;1.92;;
75526;SDS011;64107;49.248;7.006;2023-11-19T01:55:06;2.30;;;1.45;;
75526;SDS011;64107;49.248;7.006;2023-11-19T01:57:33;2.85;;;1.67;;
75526;SDS011;64107;49.248;7.006;2023-11-19T01:59:59;5.28;;;1.48;;
75526;SDS011;64107;49.248;7.006;2023-11-19T02:02:25;1.90;;;1.48;;
75526;SDS011;64107;49.248;7.006;2023-11-19T02:04:51;1.25;;;0.65;;
75526;SDS011;64107;49.248;7.006;2023-11-19T02:07:18;1.42;;;1.33;;
75526;SDS011;64107;49.248;7.006;2023-11-19T02:09:44;4.35;;;2.83;;
75526;SDS011;64107;49.248;7.006;2023-11-19T02:12:10;3.65;;;1.92;;
75526;SDS011;64107;49.248;7.006;2023-11-19T02:14:40;1.23;;;1.10;;
75526;SDS011;64107;49.248;7.006;2023-11-19T02:17:06;1.75;;;0.85;;
75526;SDS011;64107;49.248;7.006;2023-11-19T02:19:32;0.73;;;0.73;;
75526;SDS011;64107;49.248;7.006;2023-11-19T02:21:58;1.95;;;1.83;;
75526;SDS011;64107;49.248;7.006;2023-11-19T02:24:25;0.88;;;0.70;;
75526;SDS011;64107;49.248;7.006;2023-11-19T02:27:00;0.82;;;0.65;;
75526;SDS011;64107;49.248;7.006;2023-11-19T02:29:28;1.17;;;1.08;;
75526;SDS011;64107;49.248;7.006;2023-11-19T02:31:54;1.63;;;1.45;;
75526;SDS011;64107;49.248;7.006;2023-11-19T02:34:21;1.35;;;0.95;;
75526;SDS011;64107;49.248;7.006;2023-11-19T02:36:47;3.08;;;1.08;;
75526;SDS011;64107;49.248;7.006;2023-11-19T02:39:13;1.27;;;0.93;;
75526;SDS011;64107;49.248;7.006;2023-11-19T02:41:39;1.88;;;1.45;;
75526;SDS011;64107;49.248;7.006;2023-11-19T02:44:06;1.92;;;1.27;;
75526;SDS011;64107;49.248;7.006;2023-11-19T02:46:32;1.48;;;1.25;;
75526;SDS011;64107;49.248;7.006;2023-11-19T02:48:58;1.73;;;1.30;;
75526;SDS011;64107;49.248;7.006;2023-11-19T02:51:24;1.42;;;1.05;;
75526;SDS011;64107;49.248;7.006;2023-11-19T02:53:50;2.13;;;1.27;;
75526;SDS011;64107;49.248;7.006;2023-11-19T02:56:16;3.05;;;2.03;;
75526;SDS011;64107;49.248;7.006;2023-11-19T02:58:50;1.33;;;1.15;;
75526;SDS011;64107;49.248;7.006;2023-11-19T03:01:22;2.00;;;1.77;;
75526;SDS011;64107;49.248;7.006;2023-11-19T03:03:54;2.15;;;1.83;;
75526;SDS011;64107;49.248;7.006;2023-11-19T03:06:22;1.02;;;0.57;;
75526;SDS011;64107;49.248;7.006;2023-11-19T03:08:48;1.60;;;1.38;;
75526;SDS011;64107;49.248;7.006;2023-11-19T03:11:14;1.92;;;1.67;;
75526;SDS011;64107;49.248;7.006;2023-11-19T03:13:40;1.20;;;1.05;;
75526;SDS011;64107;49.248;7.006;2023-11-19T03:16:06;1.65;;;1.55;;
75526;SDS011;64107;49.248;7.006;2023-11-19T03:18:32;2.50;;;1.35;;
75526;SDS011;64107;49.248;7.006;2023-11-19T03:20:58;3.65;;;1.52;;
75526;SDS011;64107;49.248;7.006;2023-11-19T03:23:25;4.05;;;1.90;;
75526;SDS011;64107;49.248;7.006;2023-11-19T03:25:53;1.83;;;1.48;;
75526;SDS011;64107;49.248;7.006;2023-11-19T03:28:19;2.95;;;2.20;;
75526;SDS011;64107;49.248;7.006;2023-11-19T03:30:45;2.20;;;1.65;;
75526;SDS011;64107;49.248;7.006;2023-11-19T03:33:11;2.60;;;1.65;;
75526;SDS011;64107;49.248;7.006;2023-11-19T03:35:36;1.90;;;1.02;;
75526;SDS011;64107;49.248;7.006;2023-11-19T03:38:02;1.15;;;0.77;;
75526;SDS011;64107;49.248;7.006;2023-11-19T03:40:28;1.75;;;0.85;;
75526;SDS011;64107;49.248;7.006;2023-11-19T03:42:57;1.42;;;1.00;;
75526;SDS011;64107;49.248;7.006;2023-11-19T03:45:23;3.45;;;1.95;;
75526;SDS011;64107;49.248;7.006;2023-11-19T03:47:50;3.72;;;1.45;;
75526;SDS011;64107;49.248;7.006;2023-11-19T03:50:16;2.53;;;1.85;;
75526;SDS011;64107;49.248;7.006;2023-11-19T03:52:44;2.50;;;1.77;;
75526;SDS011;64107;49.248;7.006;2023-11-19T03:55:10;1.60;;;1.50;;
75526;SDS011;64107;49.248;7.006;2023-11-19T03:57:37;2.35;;;1.70;;
75526;SDS011;64107;49.248;7.006;2023-11-19T04:00:03;1.63;;;1.00;;
75526;SDS011;64107;49.248;7.006;2023-11-19T04:02:39;2.55;;;1.60;;
75526;SDS011;64107;49.248;7.006;2023-11-19T04:05:05;2.70;;;1.77;;
75526;SDS011;64107;49.248;7.006;2023-11-19T04:07:31;3.60;;;2.83;;
75526;SDS011;64107;49.248;7.006;2023-11-19T04:09:57;2.60;;;2.15;;
75526;SDS011;64107;49.248;7.006;2023-11-19T04:12:23;3.05;;;1.95;;
75526;SDS011;64107;49.248;7.006;2023-11-19T04:14:49;5.60;;;3.28;;
75526;SDS011;64107;49.248;7.006;2023-11-19T04:17:15;2.15;;;1.90;;
75526;SDS011;64107;49.248;7.006;2023-11-19T04:19:41;5.03;;;2.55;;
75526;SDS011;64107;49.248;7.006;2023-11-19T04:22:08;2.20;;;1.60;;
75526;SDS011;64107;49.248;7.006;2023-11-19T04:24:34;3.58;;;3.22;;
75526;SDS011;64107;49.248;7.006;2023-11-19T04:27:00;4.63;;;2.58;;
75526;SDS011;64107;49.248;7.006;2023-11-19T04:29:26;4.00;;;2.00;;
75526;SDS011;64107;49.248;7.006;2023-11-19T04:31:52;2.10;;;1.67;;
75526;SDS011;64107;49.248;7.006;2023-11-19T04:34:18;4.47;;;2.53;;
75526;SDS011;64107;49.248;7.006;2023-11-19T04:36:44;3.25;;;2.45;;
75526;SDS011;64107;49.248;7.006;2023-11-19T04:39:10;2.53;;;2.03;;
75526;SDS011;64107;49.248;7.006;2023-11-19T04:41:45;2.40;;;1.92;;
75526;SDS011;64107;49.248;7.006;2023-11-19T04:44:12;1.63;;;1.27;;
75526;SDS011;64107;49.248;7.006;2023-11-19T04:46:38;2.13;;;1.92;;
75526;SDS011;64107;49.248;7.006;2023-11-19T04:49:04;2.58;;;1.20;;
75526;SDS011;64107;49.248;7.006;2023-11-19T04:51:30;3.47;;;1.73;;
75526;SDS011;64107;49.248;7.006;2023-11-19T04:53:56;2.90;;;1.80;;
75526;SDS011;64107;49.248;7.006;2023-11-19T04:56:22;1.02;;;1.02;;
75526;SDS011;64107;49.248;7.006;2023-11-19T04:58:48;0.93;;;0.85;;
75526;SDS011;64107;49.248;7.006;2023-11-19T05:01:14;1.38;;;1.27;;
75526;SDS011;64107;49.248;7.006;2023-11-19T05:03:43;2.42;;;2.00;;
75526;SDS011;64107;49.248;7.006;2023-11-19T05:06:10;3.20;;;1.88;;
75526;SDS011;64107;49.248;7.006;2023-11-19T05:08:36;2.63;;;1.58;;
75526;SDS011;64107;49.248;7.006;2023-11-19T05:11:02;2.55;;;2.28;;
75526;SDS011;64107;49.248;7.006;2023-11-19T05:13:28;2.40;;;2.03;;
75526;SDS011;64107;49.248;7.006;2023-11-19T05:15:54;2.90;;;1.73;;
75526;SDS011;64107;49.248;7.006;2023-11-19T05:18:20;2.97;;;1.83;;
75526;SDS011;64107;49.248;7.006;2023-11-19T05:20:46;2.38;;;1.77;;
75526;SDS011;64107;49.248;7.006;2023-11-19T05:23:12;2.58;;;2.13;;
75526;SDS011;64107;49.248;7.006;2023-11-19T05:25:38;1.45;;;1.30;;
75526;SDS011;64107;49.248;7.006;2023-11-19T05:28:04;1.98;;;1.38;;
75526;SDS011;64107;49.248;7.006;2023-11-19T05:30:30;3.13;;;1.95;;
75526;SDS011;64107;49.248;7.006;2023-11-19T05:32:56;3.15;;;1.55;;
75526;SDS011;64107;49.248;7.006;2023-11-19T05:35:22;3.38;;;2.03;;
75526;SDS011;64107;49.248;7.006;2023-11-19T05:37:48;1.30;;;1.13;;
75526;SDS011;64107;49.248;7.006;2023-11-19T05:40:15;1.48;;;0.70;;
75526;SDS011;64107;49.248;7.006;2023-11-19T05:42:41;0.52;;;0.52;;
75526;SDS011;64107;49.248;7.006;2023-11-19T05:45:07;2.10;;;1.33;;
75526;SDS011;64107;49.248;7.006;2023-11-19T05:47:34;1.50;;;1.02;;
75526;SDS011;64107;49.248;7.006;2023-11-19T05:50:01;3.15;;;1.30;;
75526;SDS011;64107;49.248;7.006;2023-11-19T05:52:26;2.35;;;1.67;;
75526;SDS011;64107;49.248;7.006;2023-11-19T05:54:58;3.28;;;1.55;;
75526;SDS011;64107;49.248;7.006;2023-11-19T05:57:24;0.90;;;0.75;;
75526;SDS011;64107;49.248;7.006;2023-11-19T05:59:50;2.22;;;1.17;;
75526;SDS011;64107;49.248;7.006;2023-11-19T06:02:16;1.85;;;1.48;;
75526;SDS011;64107;49.248;7.006;2023-11-19T06:04:42;1.80;;;1.50;;
75526;SDS011;64107;49.248;7.006;2023-11-19T06:07:09;0.80;;;0.75;;
75526;SDS011;64107;49.248;7.006;2023-11-19T06:09:35;2.72;;;1.15;;
75526;SDS011;64107;49.248;7.006;2023-11-19T06:12:01;2.40;;;1.92;;
75526;SDS011;64107;49.248;7.006;2023-11-19T06:14:28;2.67;;;1.75;;
75526;SDS011;64107;49.248;7.006;2023-11-19T06:16:54;2.78;;;2.10;;
75526;SDS011;64107;49.248;7.006;2023-11-19T06:19:20;2.17;;;1.45;;
75526;SDS011;64107;49.248;7.006;2023-11-19T06:21:46;1.83;;;1.30;;
75526;SDS011;64107;49.248;7.006;2023-11-19T06:24:12;2.92;;;1.60;;
75526;SDS011;64107;49.248;7.006;2023-11-19T06:26:38;1.88;;;1.30;;
75526;SDS011;64107;49.248;7.006;2023-11-19T06:29:04;1.67;;;1.58;;
75526;SDS011;64107;49.248;7.006;2023-11-19T06:31:30;0.98;;;0.70;;
75526;SDS011;64107;49.248;7.006;2023-11-19T06:33:56;2.22;;;1.40;;
75526;SDS011;64107;49.248;7.006;2023-11-19T06:36:22;0.80;;;0.70;;
75526;SDS011;64107;49.248;7.006;2023-11-19T06:38:48;1.95;;;1.45;;
75526;SDS011;64107;49.248;7.006;2023-11-19T06:41:14;1.73;;;1.20;;
75526;SDS011;64107;49.248;7.006;2023-11-19T06:43:40;1.63;;;1.00;;
75526;SDS011;64107;49.248;7.006;2023-11-19T06:46:06;0.75;;;0.60;;
75526;SDS011;64107;49.248;7.006;2023-11-19T06:48:39;2.30;;;0.90;;
75526;SDS011;64107;49.248;7.006;2023-11-19T06:51:07;2.38;;;1.08;;
75526;SDS011;64107;49.248;7.006;2023-11-19T06:53:33;1.38;;;0.70;;
75526;SDS011;64107;49.248;7.006;2023-11-19T06:56:00;1.30;;;0.70;;
75526;SDS011;64107;49.248;7.006;2023-11-19T06:58:27;2.33;;;1.23;;
75526;SDS011;64107;49.248;7.006;2023-11-19T07:00:53;1.65;;;1.10;;
75526;SDS011;64107;49.248;7.006;2023-11-19T07:03:19;2.75;;;1.30;;
75526;SDS011;64107;49.248;7.006;2023-11-19T07:05:46;2.35;;;0.98;;
75526;SDS011;64107;49.248;7.006;2023-11-19T07:08:12;0.40;;;0.40;;
75526;SDS011;64107;49.248;7.006;2023-11-19T07:10:38;1.75;;;0.98;;
75526;SDS011;64107;49.248;7.006;2023-11-19T07:13:04;1.38;;;1.08;;
75526;SDS011;64107;49.248;7.006;2023-11-19T07:15:30;3.30;;;0.73;;
75526;SDS011;64107;49.248;7.006;2023-11-19T07:17:57;0.98;;;0.90;;
75526;SDS011;64107;49.248;7.006;2023-11-19T07:20:24;0.38;;;0.38;;
75526;SDS011;64107;49.248;7.006;2023-11-19T07:22:51;0.65;;;0.60;;
75526;SDS011;64107;49.248;7.006;2023-11-19T07:25:17;2.65;;;1.27;;
75526;SDS011;64107;49.248;7.006;2023-11-19T07:27:43;4.97;;;0.60;;
75526;SDS011;64107;49.248;7.006;2023-11-19T07:30:09;1.58;;;1.15;;
75526;SDS011;64107;49.248;7.006;2023-11-19T07:32:35;1.33;;;0.77;;
75526;SDS011;64107;49.248;7.006;2023-11-19T07:35:04;1.00;;;0.80;;
75526;SDS011;64107;49.248;7.006;2023-11-19T07:37:30;0.47;;;0.40;;
75526;SDS011;64107;49.248;7.006;2023-11-19T07:39:56;1.77;;;1.20;;
75526;SDS011;64107;49.248;7.006;2023-11-19T07:42:22;0.60;;;0.30;;
75526;SDS011;64107;49.248;7.006;2023-11-19T07:44:48;4.30;;;0.95;;
75526;SDS011;64107;49.248;7.006;2023-11-19T07:47:14;3.35;;;1.20;;
75526;SDS011;64107;49.248;7.006;2023-11-19T07:49:40;1.05;;;0.73;;
75526;SDS011;64107;49.248;7.006;2023-11-19T07:52:08;0.70;;;0.43;;
75526;SDS011;64107;49.248;7.006;2023-11-19T07:54:34;1.15;;;0.88;;
75526;SDS011;64107;49.248;7.006;2023-11-19T07:57:00;1.10;;;0.77;;
75526;SDS011;64107;49.248;7.006;2023-11-19T07:59:26;3.38;;;1.38;;
75526;SDS011;64107;49.248;7.006;2023-11-19T08:01:52;2.58;;;1.20;;
75526;SDS011;64107;49.248;7.006;2023-11-19T08:04:18;0.70;;;0.52;;
75526;SDS011;64107;49.248;7.006;2023-11-19T08:06:44;1.20;;;0.73;;
75526;SDS011;64107;49.248;7.006;2023-11-19T08:09:10;0.63;;;0.63;;
75526;SDS011;64107;49.248;7.006;2023-11-19T08:11:38;1.88;;;1.10;;
75526;SDS011;64107;49.248;7.006;2023-11-19T08:14:04;1.42;;;0.40;;
75526;SDS011;64107;49.248;7.006;2023-11-19T08:16:30;3.13;;;1.13;;
75526;SDS011;64107;49.248;7.006;2023-11-19T08:18:56;1.52;;;0.60;;
75526;SDS011;64107;49.248;7.006;2023-11-19T08:21:23;4.38;;;1.23;;
75526;SDS011;64107;49.248;7.006;2023-11-19T08:23:49;4.90;;;0.80;;
75526;SDS011;64107;49.248;7.006;2023-11-19T08:26:15;0.43;;;0.32;;
75526;SDS011;64107;49.248;7.006;2023-11-19T08:28:41;1.25;;;0.55;;
75526;SDS011;64107;49.248;7.006;2023-11-19T08:31:07;2.63;;;0.88;;
75526;SDS011;64107;49.248;7.006;2023-11-19T08:33:33;3.17;;;1.20;;
75526;SDS011;64107;49.248;7.006;2023-11-19T08:35:59;2.20;;;0.50;;
75526;SDS011;64107;49.248;7.006;2023-11-19T08:38:25;3.22;;;0.98;;
75526;SDS011;64107;49.248;7.006;2023-11-19T08:40:51;2.35;;;1.30;;
75526;SDS011;64107;49.248;7.006;2023-11-19T08:43:17;1.85;;;0.80;;
75526;SDS011;64107;49.248;7.006;2023-11-19T08:45:43;4.55;;;1.20;;
75526;SDS011;64107;49.248;7.006;2023-11-19T08:48:09;1.60;;;0.82;;
75526;SDS011;64107;49.248;7.006;2023-11-19T08:50:35;3.72;;;0.93;;
75526;SDS011;64107;49.248;7.006;2023-11-19T08:53:01;2.85;;;1.15;;
75526;SDS011;64107;49.248;7.006;2023-11-19T08:55:27;1.55;;;0.80;;
75526;SDS011;64107;49.248;7.006;2023-11-19T08:57:53;1.27;;;0.60;;
75526;SDS011;64107;49.248;7.006;2023-11-19T09:00:19;2.25;;;1.35;;
75526;SDS011;64107;49.248;7.006;2023-11-19T09:02:46;0.30;;;0.30;;
75526;SDS011;64107;49.248;7.006;2023-11-19T09:05:12;0.98;;;0.75;;
75526;SDS011;64107;49.248;7.006;2023-11-19T09:07:38;0.63;;;0.63;;
75526;SDS011;64107;49.248;7.006;2023-11-19T09:10:04;3.08;;;0.40;;
75526;SDS011;64107;49.248;7.006;2023-11-19T09:12:30;3.88;;;0.45;;
75526;SDS011;64107;49.248;7.006;2023-11-19T09:14:56;1.33;;;0.65;;
75526;SDS011;64107;49.248;7.006;2023-11-19T09:17:22;2.90;;;0.68;;
75526;SDS011;64107;49.248;7.006;2023-11-19T09:19:48;0.82;;;0.50;;
75526;SDS011;64107;49.248;7.006;2023-11-19T09:22:14;2.30;;;0.90;;
75526;SDS011;64107;49.248;7.006;2023-11-19T09:24:41;4.97;;;0.60;;
75526;SDS011;64107;49.248;7.006;2023-11-19T09:27:09;1.17;;;0.43;;
75526;SDS011;64107;49.248;7.006;2023-11-19T09:29:35;4.20;;;0.40;;
75526;SDS011;64107;49.248;7.006;2023-11-19T09:32:01;1.92;;;0.40;;
75526;SDS011;64107;49.248;7.006;2023-11-19T09:34:27;2.17;;;1.00;;
75526;SDS011;64107;49.248;7.006;2023-11-19T09:36:53;2.00;;;0.77;;
75526;SDS011;64107;49.248;7.006;2023-11-19T09:39:19;0.95;;;0.60;;
75526;SDS011;64107;49.248;7.006;2023-11-19T09:41:46;0.30;;;0.20;;
75526;SDS011;64107;49.248;7.006;2023-11-19T09:44:12;0.45;;;0.32;;
75526;SDS011;64107;49.248;7.006;2023-11-19T09:46:40;4.07;;;0.70;;
75526;SDS011;64107;49.248;7.006;2023-11-19T09:49:06;1.58;;;0.90;;
75526;SDS011;64107;49.248;7.006;2023-11-19T09:51:34;3.60;;;1.25;;
75526;SDS011;64107;49.248;7.006;2023-11-19T09:54:00;7.00;;;0.85;;
75526;SDS011;64107;49.248;7.006;2023-11-19T09:56:27;4.03;;;0.80;;
75526;SDS011;64107;49.248;7.006;2023-11-19T09:58:58;1.08;;;0.60;;
75526;SDS011;64107;49.248;7.006;2023-11-19T10:01:24;2.45;;;1.30;;
75526;SDS011;64107;49.248;7.006;2023-11-19T10:03:50;1.33;;;0.85;;
75526;SDS011;64107;49.248;7.006;2023-11-19T10:06:20;0.98;;;0.40;;
75526;SDS011;64107;49.248;7.006;2023-11-19T10:08:46;1.48;;;0.40;;
75526;SDS011;64107;49.248;7.006;2023-11-19T10:11:11;1.40;;;0.80;;
75526;SDS011;64107;49.248;7.006;2023-11-19T10:13:38;4.38;;;0.73;;
75526;SDS011;64107;49.248;7.006;2023-11-19T10:16:07;3.30;;;0.55;;
75526;SDS011;64107;49.248;7.006;2023-11-19T10:18:33;2.92;;;0.70;;
75526;SDS011;64107;49.248;7.006;2023-11-19T10:21:06;2.55;;;0.70;;
75526;SDS011;64107;49.248;7.006;2023-11-19T10:28:42;0.80;;;0.32;;
75526;SDS011;64107;49.248;7.006;2023-11-19T10:31:11;3.20;;;0.80;;
75526;SDS011;64107;49.248;7.006;2023-11-19T10:33:37;3.17;;;0.70;;
75526;SDS011;64107;49.248;7.006;2023-11-19T10:36:03;0.32;;;0.30;;
75526;SDS011;64107;49.248;7.006;2023-11-19T10:38:29;0.73;;;0.40;;
75526;SDS011;64107;49.248;7.006;2023-11-19T10:40:56;2.20;;;0.75;;
75526;SDS011;64107;49.248;7.006;2023-11-19T10:43:22;2.35;;;1.52;;
75526;SDS011;64107;49.248;7.006;2023-11-19T10:45:48;5.00;;;1.10;;
75526;SDS011;64107;49.248;7.006;2023-11-19T10:48:14;3.13;;;0.80;;
75526;SDS011;64107;49.248;7.006;2023-11-19T10:50:41;0.55;;;0.32;;
75526;SDS011;64107;49.248;7.006;2023-11-19T10:53:08;0.55;;;0.38;;
75526;SDS011;64107;49.248;7.006;2023-11-19T10:55:35;2.38;;;0.40;;
75526;SDS011;64107;49.248;7.006;2023-11-19T10:58:05;0.38;;;0.10;;
75526;SDS011;64107;49.248;7.006;2023-11-19T11:00:37;1.98;;;0.90;;
75526;SDS011;64107;49.248;7.006;2023-11-19T11:03:08;0.65;;;0.30;;
75526;SDS011;64107;49.248;7.006;2023-11-19T11:05:35;2.25;;;0.60;;
75526;SDS011;64107;49.248;7.006;2023-11-19T11:08:01;3.58;;;0.80;;
75526;SDS011;64107;49.248;7.006;2023-11-19T11:10:29;1.25;;;0.52;;
75526;SDS011;64107;49.248;7.006;2023-11-19T11:12:59;2.03;;;0.77;;
75526;SDS011;64107;49.248;7.006;2023-11-19T11:15:28;3.15;;;0.63;;
75526;SDS011;64107;49.248;7.006;2023-11-19T11:17:59;1.02;;;0.38;;
75526;SDS011;64107;49.248;7.006;2023-11-19T11:20:31;2.53;;;0.68;;
75526;SDS011;64107;49.248;7.006;2023-11-19T11:25:34;3.80;;;1.10;;
75526;SDS011;64107;49.248;7.006;2023-11-19T11:28:13;2.42;;;0.80;;
75526;SDS011;64107;49.248;7.006;2023-11-19T11:31:04;4.40;;;0.50;;
75526;SDS011;64107;49.248;7.006;2023-11-19T11:33:41;2.75;;;0.80;;
75526;SDS011;64107;49.248;7.006;2023-11-19T11:36:13;2.22;;;0.70;;
75526;SDS011;64107;49.248;7.006;2023-11-19T11:38:44;1.27;;;0.70;;
75526;SDS011;64107;49.248;7.006;2023-11-19T11:41:19;3.30;;;0.75;;
75526;SDS011;64107;49.248;7.006;2023-11-19T11:51:49;1.73;;;0.82;;
75526;SDS011;64107;49.248;7.006;2023-11-19T11:54:08;3.40;;;1.05;;
75526;SDS011;64107;49.248;7.006;2023-11-19T11:56:36;2.63;;;0.57;;
75526;SDS011;64107;49.248;7.006;2023-11-19T11:59:03;3.08;;;0.70;;
75526;SDS011;64107;49.248;7.006;2023-11-19T12:01:29;2.10;;;0.82;;
75526;SDS011;64107;49.248;7.006;2023-11-19T12:03:55;1.75;;;0.60;;
75526;SDS011;64107;49.248;7.006;2023-11-19T12:06:22;2.20;;;0.80;;
75526;SDS011;64107;49.248;7.006;2023-11-19T12:08:48;2.75;;;0.68;;
75526;SDS011;64107;49.248;7.006;2023-11-19T12:11:14;3.67;;;0.63;;
75526;SDS011;64107;49.248;7.006;2023-11-19T12:13:52;1.02;;;0.68;;
75526;SDS011;64107;49.248;7.006;2023-11-19T12:16:20;2.42;;;0.80;;
75526;SDS011;64107;49.248;7.006;2023-11-19T12:18:46;3.70;;;0.80;;
75526;SDS011;64107;49.248;7.006;2023-11-19T12:21:27;0.45;;;0.30;;
75526;SDS011;64107;49.248;7.006;2023-11-19T12:23:53;3.58;;;0.85;;
75526;SDS011;64107;49.248;7.006;2023-11-19T12:26:20;2.17;;;0.80;;
75526;SDS011;64107;49.248;7.006;2023-11-19T12:28:57;2.75;;;1.00;;
75526;SDS011;64107;49.248;7.006;2023-11-19T12:31:23;3.03;;;0.50;;
75526;SDS011;64107;49.248;7.006;2023-11-19T12:33:50;2.80;;;0.85;;
75526;SDS011;64107;49.248;7.006;2023-11-19T12:36:17;1.92;;;0.60;;
75526;SDS011;64107;49.248;7.006;2023-11-19T12:38:43;2.67;;;0.77;;
75526;SDS011;64107;49.248;7.006;2023-11-19T12:41:10;4.40;;;0.82;;
75526;SDS011;64107;49.248;7.006;2023-11-19T12:43:37;4.20;;;0.50;;
75526;SDS011;64107;49.248;7.006;2023-11-19T12:46:24;2.35;;;0.30;;
75526;SDS011;64107;49.248;7.006;2023-11-19T12:48:51;1.08;;;0.32;;
75526;SDS011;64107;49.248;7.006;2023-11-19T12:51:17;3.95;;;0.43;;
75526;SDS011;64107;49.248;7.006;2023-11-19T12:53:51;3.50;;;0.47;;
75526;SDS011;64107;49.248;7.006;2023-11-19T12:56:19;1.95;;;0.30;;
75526;SDS011;64107;49.248;7.006;2023-11-19T12:58:46;2.35;;;0.68;;
75526;SDS011;64107;49.248;7.006;2023-11-19T13:01:19;3.15;;;0.47;;
75526;SDS011;64107;49.248;7.006;2023-11-19T13:03:45;0.63;;;0.30;;
75526;SDS011;64107;49.248;7.006;2023-11-19T13:06:12;1.42;;;0.52;;
75526;SDS011;64107;49.248;7.006;2023-11-19T13:08:41;0.43;;;0.40;;
75526;SDS011;64107;49.248;7.006;2023-11-19T13:11:08;3.05;;;0.80;;
75526;SDS011;64107;49.248;7.006;2023-11-19T13:16:19;5.35;;;0.80;;
75526;SDS011;64107;49.248;7.006;2023-11-19T13:18:45;2.53;;;0.90;;
75526;SDS011;64107;49.248;7.006;2023-11-19T13:21:11;4.07;;;0.80;;
75526;SDS011;64107;49.248;7.006;2023-11-19T13:23:37;1.15;;;0.60;;
75526;SDS011;64107;49.248;7.006;2023-11-19T13:26:03;2.45;;;0.80;;
75526;SDS011;64107;49.248;7.006;2023-11-19T13:28:29;1.67;;;0.85;;
75526;SDS011;64107;49.248;7.006;2023-11-19T13:30:55;3.83;;;0.47;;
75526;SDS011;64107;49.248;7.006;2023-11-19T13:33:21;1.42;;;0.52;;
75526;SDS011;64107;49.248;7.006;2023-11-19T13:35:47;3.00;;;0.45;;
75526;SDS011;64107;49.248;7.006;2023-11-19T13:38:13;2.20;;;0.30;;
75526;SDS011;64107;49.248;7.006;2023-11-19T13:40:39;1.52;;;0.88;;
75526;SDS011;64107;49.248;7.006;2023-11-19T13:43:05;3.33;;;0.50;;
75526;SDS011;64107;49.248;7.006;2023-11-19T13:45:32;3.88;;;1.05;;
75526;SDS011;64107;49.248;7.006;2023-11-19T13:47:58;1.77;;;0.40;;
75526;SDS011;64107;49.248;7.006;2023-11-19T13:50:24;1.33;;;0.68;;
75526;SDS011;64107;49.248;7.006;2023-11-19T13:52:50;3.30;;;0.43;;
75526;SDS011;64107;49.248;7.006;2023-11-19T13:55:16;1.42;;;0.52;;
75526;SDS011;64107;49.248;7.006;2023-11-19T13:57:43;2.05;;;0.75;;
75526;SDS011;64107;49.248;7.006;2023-11-19T14:00:09;1.88;;;0.65;;
75526;SDS011;64107;49.248;7.006;2023-11-19T14:02:38;3.67;;;0.63;;
75526;SDS011;64107;49.248;7.006;2023-11-19T14:05:40;2.83;;;0.80;;
75526;SDS011;64107;49.248;7.006;2023-11-19T14:08:07;6.85;;;1.52;;
75526;SDS011;64107;49.248;7.006;2023-11-19T14:10:39;4.75;;;0.90;;
75526;SDS011;64107;49.248;7.006;2023-11-19T14:13:06;1.50;;;0.63;;
75526;SDS011;64107;49.248;7.006;2023-11-19T14:15:32;2.45;;;0.80;;
75526;SDS011;64107;49.248;7.006;2023-11-19T14:17:58;1.33;;;0.80;;
75526;SDS011;64107;49.248;7.006;2023-11-19T14:20:24;2.95;;;0.70;;
75526;SDS011;64107;49.248;7.006;2023-11-19T14:22:50;2.05;;;0.52;;
75526;SDS011;64107;49.248;7.006;2023-11-19T14:25:17;1.00;;;0.50;;
75526;SDS011;64107;49.248;7.006;2023-11-19T14:27:44;5.75;;;0.55;;
75526;SDS011;64107;49.248;7.006;2023-11-19T14:30:11;3.95;;;1.20;;
75526;SDS011;64107;49.248;7.006;2023-11-19T14:32:41;0.82;;;0.40;;
75526;SDS011;64107;49.248;7.006;2023-11-19T14:35:09;1.60;;;0.88;;
75526;SDS011;64107;49.248;7.006;2023-11-19T14:37:35;1.45;;;0.28;;
75526;SDS011;64107;49.248;7.006;2023-11-19T14:40:01;0.68;;;0.20;;
75526;SDS011;64107;49.248;7.006;2023-11-19T14:42:32;0.70;;;0.20;;
75526;SDS011;64107;49.248;7.006;2023-11-19T14:44:57;4.03;;;0.90;;
75526;SDS011;64107;49.248;7.006;2023-11-19T14:47:23;2.03;;;0.60;;
75526;SDS011;64107;49.248;7.006;2023-11-19T14:49:50;0.70;;;0.40;;
75526;SDS011;64107;49.248;7.006;2023-11-19T14:52:16;2.30;;;0.90;;
75526;SDS011;64107;49.248;7.006;2023-11-19T14:54:42;2.33;;;0.80;;
75526;SDS011;64107;49.248;7.006;2023-11-19T14:57:08;4.60;;;0.85;;
75526;SDS011;64107;49.248;7.006;2023-11-19T14:59:34;1.70;;;0.65;;
75526;SDS011;64107;49.248;7.006;2023-11-19T15:02:00;1.83;;;0.65;;
75526;SDS011;64107;49.248;7.006;2023-11-19T15:04:26;3.20;;;0.68;;